Time;durP1;ratioP1;P1;durP2;ratioP2;P2;SDS_P1;SDS_P2;PMS_P1;PMS_P2;Temp;Humidity;BMP_temperature;BMP_pressure;BME280_temperature;BME280_humidity;BME280_pressure;Samples;Min_cycle;Max_cycle;Signal;HPM_P1;HPM_P2
2023/11/11 00:02:27;;;;;;;1.40;0.90;;;;;;;8.51;100.00;96334.63;1224898;75;2912337;-67
2023/11/11 00:05:00;;;;;;;1.95;1.25;;;;;;;8.44;100.00;96346.78;1225773;75;2912550;-66
2023/11/11 00:07:32;;;;;;;1.45;1.10;;;;;;;8.18;100.00;96346.19;1224948;75;2915440;-68
2023/11/11 00:10:09;;;;;;;4.30;1.00;;;;;;;8.14;100.00;96334.78;1223913;75;2916997;-67
2023/11/11 00:12:41;;;;;;;0.85;0.80;;;;;;;8.21;100.00;96340.50;1223972;75;2919324;-67
2023/11/11 00:15:18;;;;;;;1.30;1.00;;;;;;;8.13;100.00;96338.72;1223818;75;2923495;-72
2023/11/11 00:17:51;;;;;;;1.05;0.80;;;;;;;8.08;100.00;96345.66;1223008;75;2934729;-67
2023/11/11 00:20:23;;;;;;;1.60;0.70;;;;;;;8.02;100.00;96336.72;1222814;75;2928965;-67
2023/11/11 00:22:56;;;;;;;1.15;0.75;;;;;;;7.89;100.00;96345.34;1224516;75;2908411;-68
2023/11/11 00:25:29;;;;;;;1.05;0.75;;;;;;;7.97;100.00;96346.38;1224643;75;2921871;-68
2023/11/11 00:28:02;;;;;;;1.95;1.00;;;;;;;7.80;100.00;96343.59;1223367;75;2923041;-67
2023/11/11 00:30:38;;;;;;;1.35;0.90;;;;;;;7.89;100.00;96337.19;1224365;75;2920702;-69
2023/11/11 00:33:10;;;;;;;1.35;0.90;;;;;;;7.70;100.00;96342.31;1223295;75;2925899;-64
2023/11/11 00:35:43;;;;;;;1.15;0.80;;;;;;;7.85;100.00;96342.84;1222493;75;2927579;-68
2023/11/11 00:38:15;;;;;;;1.25;0.85;;;;;;;7.81;100.00;96349.78;1224536;75;2922702;-68
2023/11/11 00:40:48;;;;;;;1.75;0.70;;;;;;;7.54;100.00;96349.16;1223596;75;2918319;-66
2023/11/11 00:43:21;;;;;;;0.90;0.70;;;;;;;7.57;100.00;96342.72;1222562;75;2926125;-70
2023/11/11 00:45:56;;;;;;;1.65;0.80;;;;;;;7.48;100.00;96337.50;1223423;75;2922499;-68
2023/11/11 00:48:30;;;;;;;1.10;0.75;;;;;;;7.67;100.00;96337.81;1224709;75;2925662;-65
2023/11/11 00:51:02;;;;;;;1.15;0.80;;;;;;;7.68;100.00;96337.34;1224491;75;2919570;-70
2023/11/11 00:53:35;;;;;;;1.20;0.50;;;;;;;7.41;100.00;96335.97;1223577;75;2921669;-69
2023/11/11 00:56:09;;;;;;;0.70;0.70;;;;;;;7.48;100.00;96334.78;1224181;75;2920585;-69
2023/11/11 00:58:41;;;;;;;0.95;0.80;;;;;;;7.50;100.00;96329.56;1224077;75;2931270;-67
2023/11/11 01:01:17;;;;;;;0.95;0.70;;;;;;;7.58;100.00;96333.34;1223787;75;2926887;-68
2023/11/11 01:03:49;;;;;;;0.70;0.50;;;;;;;7.39;100.00;96316.66;1224469;75;2913864;-67
2023/11/11 01:06:22;;;;;;;0.85;0.70;;;;;;;7.38;100.00;96325.28;1223567;75;2937714;-68
2023/11/11 01:08:54;;;;;;;1.00;0.70;;;;;;;7.30;100.00;96324.25;1220105;75;3067903;-67
2023/11/11 01:11:27;;;;;;;1.30;1.00;;;;;;;7.34;100.00;96317.38;1223103;75;2919394;-67
2023/11/11 01:14:00;;;;;;;1.15;0.80;;;;;;;7.36;100.00;96325.03;1224832;75;2917350;-67
2023/11/11 01:16:36;;;;;;;0.90;0.60;;;;;;;7.33;100.00;96324.03;1224695;75;2911773;-67
2023/11/11 01:19:09;;;;;;;1.05;0.85;;;;;;;7.40;100.00;96325.56;1225365;75;2915664;-68
2023/11/11 01:21:41;;;;;;;1.90;0.85;;;;;;;7.38;100.00;96328.75;1225061;75;2917626;-66
2023/11/11 01:24:14;;;;;;;1.60;0.70;;;;;;;7.72;100.00;96322.72;1224593;75;2915355;-67
2023/11/11 01:26:47;;;;;;;0.55;0.55;;;;;;;7.73;100.00;96311.34;1224763;75;2922575;-66
2023/11/11 01:29:21;;;;;;;0.60;0.45;;;;;;;7.68;100.00;96312.81;1224848;75;2918671;-67
2023/11/11 01:31:56;;;;;;;0.95;0.50;;;;;;;7.67;100.00;96314.06;1223683;75;2922084;-67
2023/11/11 01:34:29;;;;;;;1.00;0.75;;;;;;;7.68;100.00;96310.09;1224772;75;2909790;-66
2023/11/11 01:37:04;;;;;;;2.20;0.65;;;;;;;7.73;100.00;96307.91;1224021;75;2915910;-64
2023/11/11 01:39:38;;;;;;;0.70;0.30;;;;;;;7.51;99.13;96305.81;1223397;75;2923804;-69
2023/11/11 01:42:11;;;;;;;2.50;0.55;;;;;;;7.49;100.00;96305.56;1224035;75;2933256;-67
2023/11/11 01:44:44;;;;;;;0.50;0.40;;;;;;;7.76;100.00;96304.19;1223922;75;2929994;-72
2023/11/11 01:47:20;;;;;;;1.65;0.60;;;;;;;7.85;99.69;96306.69;1224619;75;2922794;-67
2023/11/11 01:49:53;;;;;;;0.50;0.50;;;;;;;7.82;100.00;96308.44;1223752;75;2943020;-68
2023/11/11 01:52:27;;;;;;;0.80;0.40;;;;;;;7.92;100.00;96297.31;1225543;75;2912536;-68
2023/11/11 01:55:01;;;;;;;0.65;0.50;;;;;;;7.92;100.00;96302.75;1225502;75;2915925;-69
2023/11/11 01:57:34;;;;;;;0.40;0.40;;;;;;;7.77;100.00;96300.22;1224289;75;2920302;-67
2023/11/11 02:00:12;;;;;;;0.55;0.50;;;;;;;7.76;100.00;96307.66;1225684;75;2910557;-67
2023/11/11 02:02:48;;;;;;;0.40;0.30;;;;;;;7.86;100.00;96308.94;1223899;75;2915716;-68
2023/11/11 02:05:20;;;;;;;0.75;0.50;;;;;;;7.87;100.00;96307.69;1224343;75;3035160;-69
2023/11/11 02:07:53;;;;;;;0.70;0.50;;;;;;;7.98;100.00;96312.44;1224081;75;2916906;-69
2023/11/11 02:10:26;;;;;;;0.85;0.60;;;;;;;7.75;100.00;96306.16;1224993;75;2918822;-67
2023/11/11 02:12:59;;;;;;;0.40;0.40;;;;;;;7.79;100.00;96306.69;1224627;75;2931184;-67
2023/11/11 02:15:32;;;;;;;0.40;0.40;;;;;;;8.05;100.00;96311.22;1223705;75;2918260;-67
2023/11/11 02:18:08;;;;;;;0.40;0.40;;;;;;;7.52;100.00;96304.56;1224740;75;2916729;-69
2023/11/11 02:20:41;;;;;;;0.50;0.40;;;;;;;7.76;100.00;96307.66;1224600;75;2919092;-67
2023/11/11 02:23:14;;;;;;;1.05;0.60;;;;;;;7.18;100.00;96296.22;1224734;75;2920031;-67
2023/11/11 02:25:49;;;;;;;1.50;0.80;;;;;;;7.54;100.00;96302.13;1225348;75;2925163;-67
2023/11/11 02:28:22;;;;;;;0.90;0.60;;;;;;;7.37;100.00;96302.03;1224614;75;2933983;-71
2023/11/11 02:30:54;;;;;;;1.15;0.70;;;;;;;7.49;100.00;96295.41;1224737;75;2917028;-67
2023/11/11 02:33:27;;;;;;;0.85;0.50;;;;;;;7.42;100.00;96302.06;1225056;75;2920143;-67
2023/11/11 02:36:00;;;;;;;1.20;0.75;;;;;;;7.49;100.00;96300.13;1225268;75;2922493;-68
2023/11/11 02:38:33;;;;;;;1.05;0.80;;;;;;;7.67;100.00;96295.00;1224569;75;2921769;-68
2023/11/11 02:41:08;;;;;;;0.45;0.45;;;;;;;7.68;100.00;96293.75;1224482;75;2919219;-67
2023/11/11 02:43:41;;;;;;;0.30;0.30;;;;;;;7.60;100.00;96295.47;1224840;75;2915923;-66
2023/11/11 02:46:15;;;;;;;0.75;0.50;;;;;;;7.60;100.00;96298.19;1225083;75;2928600;-67
2023/11/11 02:48:48;;;;;;;0.45;0.45;;;;;;;7.56;100.00;96297.66;1225890;75;2920050;-67
2023/11/11 02:51:21;;;;;;;0.75;0.60;;;;;;;7.25;100.00;96287.63;1225227;75;2923324;-69
2023/11/11 02:53:53;;;;;;;0.50;0.50;;;;;;;7.44;100.00;96294.16;1224180;75;2914324;-69
2023/11/11 02:56:28;;;;;;;0.70;0.45;;;;;;;7.63;100.00;96297.19;1225540;75;2915774;-71
2023/11/11 02:59:01;;;;;;;0.90;0.75;;;;;;;7.45;100.00;96303.06;1224756;75;2920399;-69
2023/11/11 03:01:38;;;;;;;0.80;0.60;;;;;;;7.00;100.00;96300.81;1224705;75;2931404;-67
2023/11/11 03:04:11;;;;;;;0.65;0.55;;;;;;;7.13;100.00;96310.56;1224327;75;2918290;-67
2023/11/11 03:06:46;;;;;;;2.25;0.60;;;;;;;7.29;100.00;96301.75;1224218;75;2923334;-68
2023/11/11 03:09:18;;;;;;;0.70;0.50;;;;;;;7.58;100.00;96297.19;1225009;75;2912006;-67
2023/11/11 03:11:54;;;;;;;0.45;0.45;;;;;;;7.45;100.00;96290.19;1221337;75;3038196;-66
2023/11/11 03:14:27;;;;;;;0.40;0.40;;;;;;;7.45;100.00;96297.59;1224615;75;2940586;-68
2023/11/11 03:17:00;;;;;;;0.55;0.55;;;;;;;7.71;100.00;96297.47;1224974;75;2920279;-68
2023/11/11 03:19:33;;;;;;;0.60;0.50;;;;;;;7.49;100.00;96284.50;1224745;75;2919041;-67
2023/11/11 03:22:06;;;;;;;1.65;0.75;;;;;;;7.49;100.00;96289.22;1224658;75;2919792;-69
2023/11/11 03:24:39;;;;;;;0.40;0.40;;;;;;;7.59;100.00;96283.06;1224519;75;2918074;-69
2023/11/11 03:27:15;;;;;;;0.50;0.50;;;;;;;7.28;100.00;96283.16;1223995;75;2920750;-68
2023/11/11 03:29:48;;;;;;;0.65;0.55;;;;;;;7.24;100.00;96277.97;1225213;75;2916502;-70
2023/11/11 03:32:20;;;;;;;0.85;0.55;;;;;;;7.51;100.00;96282.06;1223937;75;2918851;-68
2023/11/11 03:34:53;;;;;;;1.65;0.90;;;;;;;7.09;100.00;96283.56;1224156;75;2922816;-68
2023/11/11 03:37:25;;;;;;;0.85;0.60;;;;;;;7.46;100.00;96280.78;1224679;75;2921313;-68
2023/11/11 03:39:58;;;;;;;1.00;0.70;;;;;;;6.77;100.00;96277.41;1224544;75;2924883;-68
2023/11/11 03:42:34;;;;;;;1.05;0.90;;;;;;;7.22;100.00;96274.97;1224003;75;2923332;-69
2023/11/11 03:45:09;;;;;;;1.45;0.80;;;;;;;7.08;100.00;96273.16;1224041;75;2920854;-69
2023/11/11 03:47:42;;;;;;;1.10;0.70;;;;;;;7.33;100.00;96282.44;1224838;75;2926827;-68
2023/11/11 03:50:15;;;;;;;2.15;0.75;;;;;;;7.36;100.00;96290.41;1224788;75;2923303;-69
2023/11/11 03:52:47;;;;;;;1.10;0.70;;;;;;;7.20;100.00;96293.78;1224830;75;2920709;-68
2023/11/11 03:55:20;;;;;;;0.80;0.60;;;;;;;7.30;100.00;96291.59;1224852;75;2921007;-66
2023/11/11 03:57:56;;;;;;;0.50;0.50;;;;;;;7.49;100.00;96292.69;1224590;75;2916657;-67
2023/11/11 04:00:29;;;;;;;0.70;0.70;;;;;;;7.43;100.00;96289.19;1225202;75;2917568;-69
2023/11/11 04:03:01;;;;;;;0.60;0.60;;;;;;;7.45;100.00;96284.00;1223108;75;2915235;-68
2023/11/11 04:05:34;;;;;;;2.50;0.95;;;;;;;7.35;100.00;96286.19;1224288;75;2927735;-68
2023/11/11 04:08:07;;;;;;;1.20;0.70;;;;;;;7.28;100.00;96285.91;1225298;75;2925530;-69
2023/11/11 04:10:40;;;;;;;1.60;0.90;;;;;;;7.54;100.00;96296.66;1224420;75;2921982;-67
2023/11/11 04:13:15;;;;;;;1.10;0.70;;;;;;;7.15;100.00;96281.63;1223866;75;2922442;-67
2023/11/11 04:15:48;;;;;;;0.95;0.80;;;;;;;7.42;100.00;96283.00;1224705;75;2915154;-66
2023/11/11 04:18:20;;;;;;;1.40;1.10;;;;;;;6.97;100.00;96287.44;1222924;75;2924412;-68
2023/11/11 04:20:53;;;;;;;1.30;0.90;;;;;;;7.35;100.00;96296.31;1223883;75;2928064;-68
2023/11/11 04:23:29;;;;;;;2.55;1.10;;;;;;;6.98;100.00;96280.78;1223174;75;2951175;-69
2023/11/11 04:26:02;;;;;;;2.05;1.10;;;;;;;7.33;100.00;96285.91;1223270;75;2931239;-65
2023/11/11 04:28:42;;;;;;;2.70;1.15;;;;;;;7.08;100.00;96282.06;1224390;75;2917862;-66
2023/11/11 04:31:17;;;;;;;1.35;1.10;;;;;;;7.29;100.00;96279.19;1224197;75;2916370;-67
2023/11/11 04:33:49;;;;;;;1.40;1.10;;;;;;;7.32;100.00;96291.84;1223992;75;2925147;-68
2023/11/11 04:36:22;;;;;;;1.10;0.90;;;;;;;7.49;100.00;96283.78;1221304;75;2923840;-70
2023/11/11 04:38:55;;;;;;;1.00;0.90;;;;;;;7.49;100.00;96289.22;1223798;75;2915032;-66
2023/11/11 04:41:29;;;;;;;1.30;1.00;;;;;;;7.37;100.00;96281.00;1222188;75;2919352;-68
2023/11/11 04:44:05;;;;;;;2.00;1.10;;;;;;;7.47;100.00;96286.97;1221741;75;2963065;-68
2023/11/11 04:46:37;;;;;;;2.45;1.50;;;;;;;7.16;100.00;96293.25;1223172;75;2925248;-69
2023/11/11 04:49:10;;;;;;;2.90;1.80;;;;;;;7.15;100.00;96289.78;1223574;75;2914470;-68
2023/11/11 04:51:42;;;;;;;1.60;1.40;;;;;;;7.40;100.00;96290.16;1223530;75;2918489;-67
2023/11/11 04:54:15;;;;;;;1.50;1.20;;;;;;;7.33;100.00;96290.63;1223316;75;2915677;-68
2023/11/11 04:56:48;;;;;;;1.75;1.40;;;;;;;7.34;100.00;96289.41;1223734;75;2923819;-69
2023/11/11 04:59:23;;;;;;;2.30;1.60;;;;;;;7.31;100.00;96293.84;1223652;75;2921102;-69
2023/11/11 05:01:56;;;;;;;1.50;1.20;;;;;;;7.40;100.00;96298.31;1223932;75;2916529;-70
2023/11/11 05:04:29;;;;;;;2.55;1.40;;;;;;;7.40;100.00;96292.88;1223826;75;2925155;-69
2023/11/11 05:07:02;;;;;;;2.10;1.30;;;;;;;7.07;100.00;96290.72;1223261;75;2925644;-67
2023/11/11 05:09:35;;;;;;;1.55;0.80;;;;;;;7.00;100.00;96294.66;1221842;75;2930197;-69
2023/11/11 05:12:08;;;;;;;2.75;0.75;;;;;;;7.09;100.00;96308.03;1222811;75;2921550;-68
2023/11/11 05:14:44;;;;;;;2.00;0.75;;;;;;;7.59;100.00;96302.13;1223247;75;2933636;-68
2023/11/11 05:17:25;;;;;;;1.25;0.60;;;;;;;7.43;100.00;96303.56;1224677;75;2917196;-67
2023/11/11 05:19:59;;;;;;;3.45;1.70;;;;;;;7.07;100.00;96299.63;1224168;75;2922976;-67
2023/11/11 05:22:31;;;;;;;1.85;0.70;;;;;;;6.97;100.00;96303.75;1223820;75;2926493;-66
2023/11/11 05:25:05;;;;;;;1.65;0.60;;;;;;;7.07;100.00;96309.75;1224206;75;2928048;-68
2023/11/11 05:27:37;;;;;;;0.70;0.50;;;;;;;7.32;100.00;96316.34;1225451;75;2919612;-67
2023/11/11 05:30:16;;;;;;;1.25;0.70;;;;;;;7.19;100.00;96314.03;1224796;75;2926432;-68
2023/11/11 05:32:49;;;;;;;1.40;0.60;;;;;;;7.15;100.00;96319.72;1225305;75;2910273;-65
2023/11/11 05:35:22;;;;;;;1.00;0.80;;;;;;;6.95;100.00;96331.47;1224816;75;2924743;-67
2023/11/11 05:37:55;;;;;;;0.90;0.60;;;;;;;7.23;100.00;96322.72;1223938;75;2920092;-69
2023/11/11 05:40:29;;;;;;;1.55;0.65;;;;;;;7.35;100.00;96329.72;1222134;75;2975134;-68
2023/11/11 05:43:07;;;;;;;1.05;0.70;;;;;;;7.11;100.00;96330.06;1224880;75;2924568;-70
2023/11/11 05:45:42;;;;;;;1.30;0.90;;;;;;;7.18;100.00;96326.91;1224727;75;2919422;-67
2023/11/11 05:48:15;;;;;;;1.25;0.95;;;;;;;7.12;100.00;96338.97;1224628;75;2921713;-66
2023/11/11 05:50:47;;;;;;;0.60;0.50;;;;;;;7.35;100.00;96334.44;1223597;75;2921261;-67
2023/11/11 05:53:20;;;;;;;0.90;0.55;;;;;;;7.30;100.00;96341.34;1224963;75;2913577;-66
2023/11/11 05:55:53;;;;;;;0.90;0.60;;;;;;;7.52;100.00;96345.41;1221534;75;3001369;-69
2023/11/11 05:58:26;;;;;;;1.00;0.50;;;;;;;7.50;100.00;96350.59;1225091;75;2912248;-68
2023/11/11 06:01:01;;;;;;;0.50;0.50;;;;;;;7.38;100.00;96349.78;1224547;75;2916389;-70
2023/11/11 06:03:34;;;;;;;1.10;1.00;;;;;;;7.26;100.00;96354.41;1225315;75;2918848;-67
2023/11/11 06:06:08;;;;;;;0.90;0.70;;;;;;;7.43;100.00;96354.53;1224666;75;2919714;-67
2023/11/11 06:08:41;;;;;;;2.25;1.50;;;;;;;7.44;100.00;96364.19;1224398;75;2916714;-68
2023/11/11 06:11:14;;;;;;;4.00;2.95;;;;;;;7.35;100.00;96364.38;1224101;75;2916871;-71
2023/11/11 06:13:49;;;;;;;4.25;2.45;;;;;;;7.17;100.00;96365.50;1224610;75;2922641;-67
2023/11/11 06:16:24;;;;;;;2.20;1.60;;;;;;;7.11;100.00;96362.00;1223747;75;2927517;-68
2023/11/11 06:18:57;;;;;;;1.55;1.20;;;;;;;7.17;100.00;96366.25;1225058;75;2928365;-70
2023/11/11 06:21:29;;;;;;;1.10;0.90;;;;;;;6.98;100.00;96359.69;1224292;75;2915744;-67
2023/11/11 06:24:04;;;;;;;0.70;0.70;;;;;;;7.34;100.00;96363.66;1223755;75;2919715;-66
2023/11/11 06:26:39;;;;;;;1.80;1.40;;;;;;;7.01;100.00;96364.16;1224618;75;2916950;-70
2023/11/11 06:29:12;;;;;;;2.80;1.70;;;;;;;7.17;100.00;96365.50;1224327;75;2916624;-68
2023/11/11 06:31:47;;;;;;;2.60;1.55;;;;;;;7.25;100.00;96363.81;1224459;75;2926995;-66
2023/11/11 06:34:20;;;;;;;3.05;2.20;;;;;;;7.27;100.00;96372.25;1223476;75;2921386;-70
2023/11/11 06:37:08;;;;;;;;;;;;;;;7.25;100.00;96372.00;685033;75;21773137;-65
2023/11/11 06:39:40;;;;;;;3.15;1.90;;;;;;;7.06;100.00;96371.59;1224795;75;2925438;-68
2023/11/11 06:42:13;;;;;;;2.60;1.70;;;;;;;6.65;100.00;96357.41;1224602;75;2926895;-66
2023/11/11 06:44:45;;;;;;;8.00;5.10;;;;;;;6.87;100.00;96343.25;532028;75;21723625;-66
2023/11/11 06:47:20;;;;;;;4.45;2.90;;;;;;;6.64;100.00;96331.44;1223725;75;2915779;-71
2023/11/11 06:49:53;;;;;;;3.65;1.80;;;;;;;6.83;100.00;96344.22;1223600;75;2923299;-69
2023/11/11 06:52:26;;;;;;;3.10;1.50;;;;;;;6.75;100.00;96339.69;1223971;75;2918115;-67
2023/11/11 06:54:59;;;;;;;1.60;1.10;;;;;;;7.07;100.00;96347.84;1225025;75;2922781;-68
2023/11/11 06:57:31;;;;;;;3.70;1.30;;;;;;;6.48;100.00;96370.84;1224348;75;2918740;-67
2023/11/11 07:00:04;;;;;;;2.85;1.60;;;;;;;6.60;100.00;96365.03;1224713;75;2914864;-68
2023/11/11 07:02:40;;;;;;;2.40;1.60;;;;;;;6.81;100.00;96357.56;1224099;75;2920404;-67
2023/11/11 07:05:12;;;;;;;1.80;1.20;;;;;;;6.74;100.00;96349.09;1224201;75;2918493;-69
2023/11/11 07:07:46;;;;;;;1.80;1.40;;;;;;;6.92;100.00;96372.47;1224585;75;2922063;-68
2023/11/11 07:10:21;;;;;;;8.10;5.40;;;;;;;6.54;100.00;96383.28;1224783;75;2926447;-68
2023/11/11 07:12:54;;;;;;;6.70;4.35;;;;;;;6.70;100.00;96371.06;1223015;75;2919761;-69
2023/11/11 07:15:27;;;;;;;7.00;4.80;;;;;;;6.98;100.00;96363.13;1223809;75;2920691;-67
2023/11/11 07:18:03;;;;;;;4.85;3.35;;;;;;;6.89;100.00;96357.13;1222746;75;2924924;-66
2023/11/11 07:20:36;;;;;;;3.15;2.30;;;;;;;6.96;100.00;96346.56;1223559;75;2935123;-66
2023/11/11 07:23:08;;;;;;;2.90;2.25;;;;;;;7.34;100.00;96373.78;1223036;75;2922820;-70
2023/11/11 07:25:41;;;;;;;2.85;1.90;;;;;;;7.18;100.00;96377.88;1221890;75;2927493;-67
2023/11/11 07:28:15;;;;;;;2.90;2.00;;;;;;;7.18;100.00;96386.03;1224354;75;2921104;-66
2023/11/11 07:30:48;;;;;;;2.95;2.20;;;;;;;7.13;100.00;96386.75;1223787;75;2913426;-69
2023/11/11 07:33:24;;;;;;;2.85;2.10;;;;;;;7.38;100.00;96377.00;1223643;75;2912449;-66
2023/11/11 07:35:56;;;;;;;3.85;2.10;;;;;;;7.31;100.00;96394.56;1224136;83;2915956;-69
2023/11/11 07:38:29;;;;;;;2.75;1.80;;;;;;;7.36;100.00;96396.56;1222796;75;2917319;-67
2023/11/11 07:41:02;;;;;;;3.80;2.30;;;;;;;7.38;100.00;96409.69;1222172;75;2923232;-67
2023/11/11 07:43:34;;;;;;;2.40;1.60;;;;;;;7.55;100.00;96405.13;1223775;75;2920461;-66
2023/11/11 07:46:09;;;;;;;2.00;1.70;;;;;;;7.54;100.00;96411.78;1223284;75;2922257;-69
2023/11/11 07:48:44;;;;;;;3.65;2.25;;;;;;;7.06;100.00;96415.13;1222568;75;2928783;-69
2023/11/11 07:51:17;;;;;;;3.90;2.80;;;;;;;7.27;100.00;96415.06;1222838;75;2919227;-67
2023/11/11 07:53:49;;;;;;;3.80;2.50;;;;;;;7.27;100.00;96418.53;1223651;75;2913445;-69
2023/11/11 07:56:23;;;;;;;3.60;2.40;;;;;;;7.42;100.00;96415.66;1223460;75;2917476;-68
2023/11/11 07:58:55;;;;;;;3.95;2.40;;;;;;;7.20;100.00;96411.53;1224262;75;2938326;-69
2023/11/11 08:01:29;;;;;;;3.50;2.65;;;;;;;7.29;100.00;96426.19;1223857;75;2926518;-69
2023/11/11 08:04:05;;;;;;;2.90;2.10;;;;;;;7.40;100.00;96423.56;1222430;75;2916838;-66
2023/11/11 08:06:37;;;;;;;2.70;1.65;;;;;;;7.31;100.00;96421.03;1223013;75;2921630;-69
2023/11/11 08:09:11;;;;;;;5.50;2.00;;;;;;;6.89;100.00;96425.88;1223255;75;2932758;-66
2023/11/11 08:11:44;;;;;;;3.50;1.90;;;;;;;6.91;100.00;96433.56;1222909;75;2925275;-67
2023/11/11 08:14:16;;;;;;;3.30;1.90;;;;;;;7.07;100.00;96413.94;1223603;75;2921886;-68
2023/11/11 08:16:49;;;;;;;2.60;1.45;;;;;;;6.98;100.00;96420.28;1223660;75;2938506;-68
2023/11/11 08:19:24;;;;;;;4.20;2.20;;;;;;;7.06;100.00;96414.41;1222842;75;2925760;-67
2023/11/11 08:21:57;;;;;;;2.70;1.30;;;;;;;7.03;100.00;96413.38;1223560;75;2952367;-66
2023/11/11 08:24:30;;;;;;;2.35;1.30;;;;;;;7.04;100.00;96410.16;1222916;75;2916571;-69
2023/11/11 08:27:03;;;;;;;1.10;0.90;;;;;;;7.38;100.00;96423.28;1222522;75;2933077;-66
2023/11/11 08:29:36;;;;;;;3.20;1.50;;;;;;;7.03;100.00;96413.38;1224431;75;2921412;-69
2023/11/11 08:32:10;;;;;;;3.35;2.10;;;;;;;7.12;100.00;96410.50;1224591;75;2918701;-67
2023/11/11 08:34:45;;;;;;;5.65;3.50;;;;;;;7.10;100.00;96412.94;1224593;75;2914075;-68
2023/11/11 08:37:18;;;;;;;4.65;3.20;;;;;;;7.17;100.00;96415.25;1224728;75;2913612;-69
2023/11/11 08:39:50;;;;;;;4.35;3.05;;;;;;;7.22;100.00;96408.34;1224412;75;2922381;-69
2023/11/11 08:42:23;;;;;;;3.95;2.55;;;;;;;7.46;100.00;96410.75;1223118;75;2919402;-69
2023/11/11 08:44:58;;;;;;;7.25;3.95;;;;;;;7.46;100.00;96421.63;1224402;75;2917637;-66
2023/11/11 08:47:31;;;;;;;4.35;3.00;;;;;;;7.37;100.00;96419.09;1224254;75;2932081;-67
2023/11/11 08:50:09;;;;;;;2.55;1.85;;;;;;;7.46;100.00;96421.63;1224814;75;2921513;-68
2023/11/11 08:52:43;;;;;;;2.20;1.60;;;;;;;7.37;100.00;96419.09;1224780;75;2919007;-67
2023/11/11 08:55:18;;;;;;;1.95;1.50;;;;;;;7.50;100.00;96416.69;1225136;75;2915343;-67
2023/11/11 08:57:50;;;;;;;5.55;1.45;;;;;;;7.48;100.00;96416.47;1225319;75;2920713;-67
2023/11/11 09:00:23;;;;;;;1.90;1.30;;;;;;;7.28;100.00;96405.66;1224358;75;2917555;-68
2023/11/11 09:02:56;;;;;;;1.45;1.10;;;;;;;7.54;100.00;96409.06;1224734;75;2919999;-67
2023/11/11 09:05:31;;;;;;;3.35;1.50;;;;;;;7.32;100.00;96403.47;1224291;75;2911998;-66
2023/11/11 09:08:05;;;;;;;2.35;1.55;;;;;;;7.38;100.00;96409.69;1224504;75;2932430;-70
2023/11/11 09:10:39;;;;;;;5.60;4.25;;;;;;;7.37;100.00;96421.81;1224424;75;2922799;-68
2023/11/11 09:13:13;;;;;;;3.85;3.45;;;;;;;7.59;100.00;96415.78;1224160;75;2912371;-68
2023/11/11 09:15:45;;;;;;;2.10;1.70;;;;;;;7.51;100.00;96420.19;1222764;75;2967077;-69
2023/11/11 09:18:18;;;;;;;2.20;1.50;;;;;;;7.13;100.00;96419.41;1224012;75;2918002;-70
2023/11/11 09:20:53;;;;;;;1.25;1.15;;;;;;;7.50;100.00;96426.84;1222789;75;2930315;-70
2023/11/11 09:23:26;;;;;;;2.55;1.30;;;;;;;7.43;100.00;96428.03;1223542;75;2922678;-69
2023/11/11 09:25:59;;;;;;;2.05;1.75;;;;;;;7.49;100.00;96428.84;1223633;75;2925463;-69
2023/11/11 09:28:32;;;;;;;4.35;2.85;;;;;;;7.44;100.00;96429.53;1216928;75;3103693;-70
2023/11/11 09:31:05;;;;;;;3.05;1.75;;;;;;;7.27;100.00;96421.25;1224000;75;2928685;-70
2023/11/11 09:33:39;;;;;;;4.15;2.00;;;;;;;7.40;100.00;96421.59;1223204;75;2939726;-68
2023/11/11 09:36:17;;;;;;;3.00;2.70;;;;;;;7.54;100.00;96424.66;1223749;75;2913139;-70
2023/11/11 09:38:50;;;;;;;2.50;2.10;;;;;;;7.89;100.00;96419.66;1224585;75;2928908;-68
2023/11/11 09:41:23;;;;;;;3.50;2.05;;;;;;;7.58;100.00;96414.28;1223989;75;2935506;-68
2023/11/11 09:43:56;;;;;;;2.75;1.30;;;;;;;7.88;100.00;96412.72;1223689;75;2922432;-68
2023/11/11 09:46:33;;;;;;;4.70;3.35;;;;;;;7.83;100.00;96424.31;1222522;75;2918883;-68
2023/11/11 09:49:06;;;;;;;2.55;1.70;;;;;;;7.99;100.00;96417.50;1224995;75;2916240;-69
2023/11/11 09:51:44;;;;;;;3.30;1.90;;;;;;;8.19;100.00;96422.03;1223000;75;2928492;-70
2023/11/11 09:54:17;;;;;;;2.20;1.50;;;;;;;7.94;100.00;96429.09;1224505;75;2912218;-69
2023/11/11 09:56:50;;;;;;;4.70;1.40;;;;;;;7.77;100.00;96429.00;1223963;75;2918868;-68
2023/11/11 09:59:24;;;;;;;3.50;1.30;;;;;;;8.04;100.00;96418.75;1224271;75;2923469;-71
2023/11/11 10:01:58;;;;;;;2.85;1.60;;;;;;;7.89;100.00;96421.66;1223223;75;2921395;-69
2023/11/11 10:04:30;;;;;;;2.50;1.35;;;;;;;7.71;100.00;96414.59;1223329;75;2933702;-68
2023/11/11 10:07:06;;;;;;;2.65;1.40;;;;;;;7.92;100.00;96417.94;1223470;75;2924298;-70
2023/11/11 10:09:39;;;;;;;2.05;1.50;;;;;;;8.20;100.00;96417.31;1223206;75;2924776;-69
2023/11/11 10:12:13;;;;;;;1.95;1.40;;;;;;;8.18;100.00;96414.31;1222867;75;2914925;-69
2023/11/11 10:14:46;;;;;;;2.25;1.30;;;;;;;8.11;100.00;96421.75;1224233;75;2912597;-70
2023/11/11 10:17:19;;;;;;;1.95;1.40;;;;;;;8.48;100.00;96423.63;1224154;75;2913622;-69
2023/11/11 10:19:52;;;;;;;2.55;1.65;;;;;;;8.62;100.00;96410.28;1223429;75;2924795;-69
2023/11/11 10:22:28;;;;;;;2.75;1.60;;;;;;;9.10;100.00;96410.09;1222469;75;2925410;-70
2023/11/11 10:25:00;;;;;;;2.45;1.50;;;;;;;9.45;100.00;96411.56;1222913;75;2920450;-72
2023/11/11 10:27:33;;;;;;;2.20;1.55;;;;;;;10.22;100.00;96405.66;1222355;75;2918584;-68
2023/11/11 10:30:07;;;;;;;1.65;1.35;;;;;;;10.22;100.00;96405.66;1223955;75;2925353;-69
2023/11/11 10:32:41;;;;;;;1.80;1.25;;;;;;;10.72;100.00;96412.16;1222893;75;2924532;-68
2023/11/11 10:35:13;;;;;;;2.30;1.30;;;;;;;11.22;97.70;96411.06;1221930;75;2920963;-69
2023/11/11 10:37:50;;;;;;;3.25;1.20;;;;;;;10.89;99.09;96407.31;1223728;75;2915496;-70
2023/11/11 10:40:24;;;;;;;4.45;1.80;;;;;;;11.81;93.11;96401.31;1222107;75;2927519;-72
2023/11/11 10:42:57;;;;;;;2.95;2.05;;;;;;;11.33;86.88;96396.53;1221696;75;2924936;-70
2023/11/11 10:45:29;;;;;;;1.70;1.20;;;;;;;11.94;85.36;96401.44;1223451;75;2917435;-69
2023/11/11 10:48:02;;;;;;;1.25;1.00;;;;;;;12.04;82.10;96395.59;1222440;75;2925684;-72
2023/11/11 10:50:36;;;;;;;2.30;1.35;;;;;;;12.82;80.82;96393.09;1222558;75;2930587;-69
2023/11/11 10:53:12;;;;;;;2.10;0.95;;;;;;;12.64;79.70;96394.59;1222434;75;2914999;-71
2023/11/11 10:55:49;;;;;;;2.00;1.30;;;;;;;13.20;79.91;96397.28;1223487;75;2916076;-71
2023/11/11 10:58:22;;;;;;;8.75;1.30;;;;;;;12.86;76.58;96396.28;1223124;75;2911067;-71
2023/11/11 11:00:58;;;;;;;1.50;0.90;;;;;;;13.78;74.56;96395.81;1222782;75;2936310;-72
2023/11/11 11:03:32;;;;;;;1.90;0.80;;;;;;;13.06;77.49;96397.72;1222167;75;2921684;-70
2023/11/11 11:06:13;;;;;;;1.30;0.85;;;;;;;13.62;75.23;96399.59;1224221;75;2930034;-70
2023/11/11 11:09:04;;;;;;;1.80;1.10;;;;;;;14.17;71.74;96390.84;1222057;75;2933206;-69
2023/11/11 11:11:50;;;;;;;2.15;1.00;;;;;;;14.22;72.63;96381.72;1225361;75;2915773;-71
2023/11/11 11:14:35;;;;;;;2.70;1.20;;;;;;;14.08;72.76;96383.75;1224226;75;2918462;-71
2023/11/11 11:17:08;;;;;;;1.15;0.60;;;;;;;13.92;72.29;96376.56;1223886;75;2923776;-70
2023/11/11 11:20:04;;;;;;;1.85;1.25;;;;;;;12.68;75.54;96384.81;1223308;75;2945910;-70
2023/11/11 11:22:38;;;;;;;1.45;0.90;;;;;;;13.13;75.16;96388.88;1224264;75;2916556;-70
2023/11/11 11:25:44;;;;;;;2.10;1.00;;;;;;;12.99;76.05;96388.84;1224374;75;2917141;-69
2023/11/11 11:28:26;;;;;;;1.45;0.85;;;;;;;12.48;74.25;96382.59;1221353;75;3048142;-70
2023/11/11 11:31:03;;;;;;;2.00;0.80;;;;;;;12.89;77.51;96389.75;1224417;75;2923998;-70
2023/11/11 11:33:41;;;;;;;1.30;0.80;;;;;;;13.00;75.77;96373.09;1224358;75;2926493;-71
2023/11/11 11:36:14;;;;;;;1.20;0.90;;;;;;;13.19;75.41;96382.03;1223637;75;2929713;-72
2023/11/11 11:38:49;;;;;;;1.35;0.80;;;;;;;13.24;75.63;96382.47;1224016;75;2933505;-69
2023/11/11 11:41:28;;;;;;;2.65;1.45;;;;;;;13.40;77.05;96378.75;1224176;75;2919158;-71
2023/11/11 11:44:02;;;;;;;2.05;0.90;;;;;;;12.97;76.70;96376.91;1211971;75;3795531;-69
2023/11/11 11:46:36;;;;;;;2.55;1.20;;;;;;;13.14;74.36;96385.63;1224938;75;2907908;-71
2023/11/11 11:49:09;;;;;;;1.00;0.90;;;;;;;12.82;72.68;96382.13;1221248;75;3047583;-70